Time;durP1;ratioP1;P1;durP2;ratioP2;P2;SDS_P1;SDS_P2;PMS_P1;PMS_P2;Temp;Humidity;BMP_temperature;BMP_pressure;BME280_temperature;BME280_humidity;BME280_pressure;Samples;Min_cycle;Max_cycle;Signal;HPM_P1;HPM_P2
2021/03/14 00:00:40;;;;;;;10.23;3.30;;;5.50;71.90;;;;;;4992966;28;20395;-71
2021/03/14 00:03:07;;;;;;;4.55;2.80;;;5.50;71.70;;;;;;4993408;28;20389;-69
2021/03/14 00:05:34;;;;;;;7.32;2.70;;;5.40;72.40;;;;;;4993325;28;20915;-70
2021/03/14 00:08:00;;;;;;;6.07;2.70;;;5.30;74.20;;;;;;4991459;28;20386;-70
2021/03/14 00:10:26;;;;;;;5.22;2.92;;;5.30;74.10;;;;;;4991214;28;20497;-69
2021/03/14 00:12:52;;;;;;;5.90;2.77;;;5.20;74.50;;;;;;4991246;28;20394;-70
2021/03/14 00:15:22;;;;;;;8.48;2.80;;;5.20;74.50;;;;;;4990998;28;20485;-71
2021/03/14 00:17:47;;;;;;;6.45;2.63;;;5.20;74.40;;;;;;4991055;28;20401;-71
2021/03/14 00:20:14;;;;;;;6.95;2.60;;;5.20;73.70;;;;;;4990945;28;20386;-71
2021/03/14 00:22:40;;;;;;;4.18;2.20;;;5.20;73.80;;;;;;4993185;28;20394;-70
2021/03/14 00:25:07;;;;;;;4.78;2.33;;;5.10;74.60;;;;;;4994827;28;20406;-71
2021/03/14 00:27:33;;;;;;;3.70;2.30;;;5.20;72.90;;;;;;4994765;28;20756;-70
2021/03/14 00:29:58;;;;;;;4.00;2.30;;;5.30;72.60;;;;;;4994953;28;20382;-70
2021/03/14 00:32:24;;;;;;;6.40;2.30;;;5.30;71.70;;;;;;4994645;28;20873;-70
2021/03/14 00:34:49;;;;;;;4.30;2.40;;;5.30;72.50;;;;;;4994866;28;20390;-70
2021/03/14 00:37:15;;;;;;;3.50;2.30;;;5.30;72.70;;;;;;4994605;28;20429;-69
2021/03/14 00:39:41;;;;;;;3.92;2.15;;;5.40;72.20;;;;;;4994469;28;20752;-70
2021/03/14 00:42:06;;;;;;;6.00;2.65;;;5.60;67.80;;;;;;4994473;28;20402;-71
2021/03/14 00:44:32;;;;;;;9.07;2.70;;;5.60;68.20;;;;;;4994448;28;20403;-70
2021/03/14 00:46:57;;;;;;;5.10;2.35;;;5.60;66.10;;;;;;4994260;28;20425;-69
2021/03/14 00:49:23;;;;;;;6.03;2.30;;;5.70;65.40;;;;;;4994250;28;20478;-70
2021/03/14 00:51:49;;;;;;;6.60;2.27;;;5.70;65.20;;;;;;4994556;28;20378;-70
2021/03/14 00:54:15;;;;;;;5.70;2.85;;;5.70;65.40;;;;;;4994371;28;20724;-71
2021/03/14 00:56:41;;;;;;;7.50;2.67;;;5.70;65.20;;;;;;4994723;28;20395;-71
2021/03/14 00:59:06;;;;;;;5.95;2.53;;;5.60;65.10;;;;;;4994011;28;20451;-71
2021/03/14 01:01:32;;;;;;;6.20;2.65;;;5.70;64.70;;;;;;4992916;28;20413;-69
2021/03/14 01:03:58;;;;;;;6.03;2.47;;;5.70;65.00;;;;;;4994128;28;20468;-71
2021/03/14 01:06:23;;;;;;;4.10;2.33;;;5.70;65.50;;;;;;4994137;28;20461;-71
2021/03/14 01:08:50;;;;;;;8.80;2.45;;;5.70;64.80;;;;;;4993835;28;20386;-70
2021/03/14 01:11:16;;;;;;;8.60;2.50;;;5.70;64.00;;;;;;4993898;28;20478;-71
2021/03/14 01:13:42;;;;;;;5.10;2.47;;;5.70;65.10;;;;;;4993912;28;20470;-71
2021/03/14 01:16:08;;;;;;;7.72;2.58;;;5.70;66.40;;;;;;4993774;28;20437;-71
2021/03/14 01:18:33;;;;;;;4.00;2.10;;;5.80;63.00;;;;;;4994185;28;20831;-71
2021/03/14 01:20:59;;;;;;;5.65;2.25;;;5.80;64.90;;;;;;5000596;28;20464;-70
2021/03/14 01:23:25;;;;;;;4.40;2.22;;;5.80;65.20;;;;;;5000167;28;20756;-70
2021/03/14 01:25:50;;;;;;;8.80;2.80;;;5.80;64.50;;;;;;5000728;28;20406;-69
2021/03/14 01:28:16;;;;;;;8.77;2.90;;;5.80;63.90;;;;;;4998141;28;20390;-69
2021/03/14 01:30:42;;;;;;;5.30;2.60;;;5.80;65.30;;;;;;4997798;28;20395;-70
2021/03/14 01:33:07;;;;;;;6.70;2.70;;;5.80;66.10;;;;;;4998767;28;20434;-69
2021/03/14 01:35:33;;;;;;;7.57;2.72;;;5.80;64.30;;;;;;4998806;28;20383;-70
2021/03/14 01:37:59;;;;;;;9.57;2.53;;;5.80;66.20;;;;;;4998787;28;20485;-71
2021/03/14 01:40:24;;;;;;;9.83;3.13;;;5.90;65.00;;;;;;4995153;28;20391;-70
2021/03/14 01:42:50;;;;;;;11.90;2.90;;;5.90;67.20;;;;;;4993720;28;20394;-72
2021/03/14 01:45:17;;;;;;;7.65;2.53;;;5.90;65.40;;;;;;4993653;28;20403;-71
2021/03/14 01:47:45;;;;;;;9.30;3.30;;;5.90;64.60;;;;;;4993675;28;20440;-71
2021/03/14 01:50:22;;;;;;;7.80;2.97;;;5.90;65.40;;;;;;4992798;28;20387;-71
2021/03/14 01:52:49;;;;;;;6.97;2.50;;;5.90;66.60;;;;;;4993285;28;20386;-70
2021/03/14 01:55:16;;;;;;;12.55;2.90;;;5.90;66.60;;;;;;4993568;28;20390;-70
2021/03/14 01:57:42;;;;;;;4.93;2.20;;;6.00;64.40;;;;;;4993256;28;20726;-72
2021/03/14 02:00:10;;;;;;;7.57;2.92;;;6.10;64.70;;;;;;4992956;28;20477;-71
2021/03/14 02:02:36;;;;;;;9.77;2.60;;;6.00;64.80;;;;;;4993167;28;20397;-71
2021/03/14 02:05:04;;;;;;;6.47;2.35;;;6.00;65.60;;;;;;4993176;28;20410;-72
2021/03/14 02:07:31;;;;;;;10.80;3.20;;;6.00;64.60;;;;;;4992800;28;20395;-72
2021/03/14 02:09:56;;;;;;;8.68;2.80;;;6.00;65.40;;;;;;4992634;28;20386;-70
2021/03/14 02:12:25;;;;;;;9.43;2.75;;;6.10;63.00;;;;;;4992950;28;20944;-71
2021/03/14 02:14:56;;;;;;;4.63;2.43;;;6.10;62.80;;;;;;4992848;28;20478;-71
2021/03/14 02:17:28;;;;;;;5.57;2.17;;;6.00;63.50;;;;;;4992677;28;20387;-71
2021/03/14 02:20:05;;;;;;;7.20;2.60;;;6.10;62.30;;;;;;4992730;28;20386;-70
2021/03/14 02:22:31;;;;;;;4.83;2.50;;;6.00;63.10;;;;;;4992544;28;20836;-71
2021/03/14 02:25:01;;;;;;;5.63;2.40;;;6.00;62.60;;;;;;4992549;28;20445;-71
2021/03/14 02:27:27;;;;;;;9.25;3.00;;;6.00;64.00;;;;;;4992407;28;20391;-71
2021/03/14 02:29:54;;;;;;;8.82;2.58;;;6.00;63.70;;;;;;4992027;28;20881;-71
2021/03/14 02:32:21;;;;;;;11.93;2.70;;;6.00;62.80;;;;;;4992037;28;20426;-71
2021/03/14 02:34:53;;;;;;;7.25;2.55;;;6.00;63.90;;;;;;4992535;28;20947;-71
2021/03/14 02:37:21;;;;;;;6.38;2.40;;;6.00;62.80;;;;;;4992162;28;20938;-71
2021/03/14 02:39:47;;;;;;;6.85;2.38;;;6.00;63.00;;;;;;4992062;28;20390;-70
2021/03/14 02:42:14;;;;;;;12.13;2.60;;;6.00;63.80;;;;;;4992121;28;20403;-71
2021/03/14 02:44:44;;;;;;;6.13;2.70;;;6.00;62.90;;;;;;4991864;28;20414;-70
2021/03/14 02:47:10;;;;;;;7.88;2.70;;;6.00;63.80;;;;;;4992040;28;20730;-71
2021/03/14 02:49:37;;;;;;;5.00;2.40;;;6.00;63.70;;;;;;4991844;28;20444;-71
2021/03/14 02:52:08;;;;;;;5.70;2.40;;;6.00;63.60;;;;;;4990873;28;20521;-71
2021/03/14 02:54:34;;;;;;;5.20;2.80;;;6.10;63.80;;;;;;4992109;28;20931;-70
2021/03/14 02:57:01;;;;;;;7.00;2.25;;;6.00;64.50;;;;;;4992064;28;20718;-70
2021/03/14 02:59:27;;;;;;;4.50;2.25;;;6.00;63.80;;;;;;4990432;28;20394;-70
2021/03/14 03:01:54;;;;;;;10.15;2.70;;;6.00;62.80;;;;;;4991987;28;20418;-71
2021/03/14 03:04:24;;;;;;;4.97;2.70;;;6.00;63.40;;;;;;4991765;28;20433;-70
2021/03/14 03:06:50;;;;;;;6.93;2.47;;;6.00;65.20;;;;;;4991780;28;20393;-70
2021/03/14 03:09:16;;;;;;;8.88;2.42;;;5.90;64.60;;;;;;4991420;28;20425;-70
2021/03/14 03:11:44;;;;;;;11.17;3.50;;;5.90;64.80;;;;;;4991874;28;20884;-70
2021/03/14 03:14:15;;;;;;;11.93;2.80;;;5.90;64.90;;;;;;4991883;28;20409;-70
2021/03/14 03:16:42;;;;;;;5.82;2.10;;;5.80;65.70;;;;;;4992388;28;20398;-70
2021/03/14 03:19:12;;;;;;;6.75;2.50;;;5.80;65.80;;;;;;4991453;28;20460;-70
2021/03/14 03:21:38;;;;;;;3.90;2.40;;;5.60;67.40;;;;;;4991942;28;20383;-70
2021/03/14 03:24:06;;;;;;;8.55;2.70;;;5.60;67.80;;;;;;4991785;28;20913;-70
2021/03/14 03:26:32;;;;;;;11.02;2.92;;;5.60;68.40;;;;;;4992076;28;20425;-71
2021/03/14 03:28:57;;;;;;;7.80;2.60;;;5.60;68.40;;;;;;4991441;28;20383;-70
2021/03/14 03:31:23;;;;;;;7.88;2.40;;;5.60;67.90;;;;;;4991689;28;20402;-71
2021/03/14 03:33:48;;;;;;;9.52;2.00;;;5.50;69.70;;;;;;4991450;28;20449;-70
2021/03/14 03:36:14;;;;;;;13.73;2.30;;;5.50;69.40;;;;;;4991540;28;20398;-70
2021/03/14 03:38:39;;;;;;;9.52;2.53;;;5.60;68.30;;;;;;4991404;28;20441;-70
2021/03/14 03:41:05;;;;;;;11.75;2.67;;;5.60;67.90;;;;;;4991752;28;20394;-70
2021/03/14 03:43:35;;;;;;;8.13;2.20;;;5.60;68.60;;;;;;4991382;28;20488;-70
2021/03/14 03:46:04;;;;;;;8.77;2.10;;;5.60;68.50;;;;;;4991471;28;20413;-70
2021/03/14 03:48:39;;;;;;;11.38;2.92;;;5.60;67.80;;;;;;4991327;28;20394;-71
2021/03/14 03:51:05;;;;;;;6.00;2.03;;;5.60;68.50;;;;;;4991534;28;20383;-71
2021/03/14 03:53:33;;;;;;;10.88;2.60;;;5.60;69.00;;;;;;4991315;28;20395;-71
2021/03/14 03:55:59;;;;;;;8.57;2.77;;;5.60;67.90;;;;;;4991394;28;20481;-70
2021/03/14 03:58:27;;;;;;;11.15;2.40;;;5.60;67.40;;;;;;4994499;28;20705;-70
2021/03/14 04:00:54;;;;;;;6.78;2.53;;;5.70;66.80;;;;;;4995317;28;20398;-69
2021/03/14 04:03:21;;;;;;;6.95;2.70;;;5.60;67.10;;;;;;4995535;28;20485;-71
2021/03/14 04:05:50;;;;;;;8.20;2.58;;;5.60;67.20;;;;;;4995626;28;20402;-70
2021/03/14 04:08:16;;;;;;;9.70;2.70;;;5.60;67.30;;;;;;4995227;28;20397;-70
2021/03/14 04:10:44;;;;;;;5.95;2.75;;;5.60;66.60;;;;;;4995554;28;20386;-70
2021/03/14 04:13:10;;;;;;;7.25;2.70;;;5.60;66.60;;;;;;4995280;28;20416;-71
2021/03/14 04:15:36;;;;;;;6.90;3.00;;;5.60;67.60;;;;;;4995284;28;20881;-71
2021/03/14 04:18:03;;;;;;;7.05;2.50;;;5.60;67.70;;;;;;4995316;28;20436;-70
2021/03/14 04:20:35;;;;;;;11.07;2.83;;;5.60;67.90;;;;;;4994830;28;20394;-71
2021/03/14 04:23:07;;;;;;;6.78;2.53;;;5.60;67.30;;;;;;4995056;28;20386;-70
2021/03/14 04:25:33;;;;;;;11.10;2.95;;;5.70;66.20;;;;;;4994769;28;20815;-70
2021/03/14 04:28:01;;;;;;;10.02;2.65;;;5.60;66.70;;;;;;4994757;28;20469;-70
2021/03/14 04:30:27;;;;;;;7.38;2.53;;;5.60;66.60;;;;;;4994333;28;20397;-69
2021/03/14 04:32:54;;;;;;;12.05;2.63;;;5.60;68.00;;;;;;4994250;28;20405;-71
2021/03/14 04:35:21;;;;;;;13.38;3.10;;;5.70;66.70;;;;;;4994295;28;20971;-69
2021/03/14 04:37:48;;;;;;;4.35;2.83;;;5.70;66.80;;;;;;4994566;28;20398;-69
2021/03/14 04:40:15;;;;;;;12.93;2.70;;;5.70;66.40;;;;;;4994131;28;20401;-70
2021/03/14 04:42:44;;;;;;;10.88;3.05;;;5.70;65.80;;;;;;4994533;28;20382;-71
2021/03/14 04:45:11;;;;;;;11.40;2.90;;;5.70;64.80;;;;;;4996770;28;20892;-71
2021/03/14 04:47:40;;;;;;;11.88;3.05;;;5.80;65.40;;;;;;4995603;28;20398;-71
2021/03/14 04:50:06;;;;;;;9.90;3.25;;;5.70;64.90;;;;;;4996346;28;20393;-70
2021/03/14 04:52:33;;;;;;;7.97;2.90;;;5.70;66.00;;;;;;4994312;28;20493;-71
2021/03/14 04:55:00;;;;;;;9.02;3.10;;;5.70;66.80;;;;;;4994421;28;20395;-70
2021/03/14 04:57:26;;;;;;;4.55;2.95;;;5.60;67.50;;;;;;4994117;28;20756;-70
2021/03/14 04:59:52;;;;;;;8.25;3.20;;;5.70;65.40;;;;;;4994011;28;20399;-70
2021/03/14 05:02:19;;;;;;;4.88;2.30;;;5.70;65.90;;;;;;4994005;28;20724;-71
2021/03/14 05:04:48;;;;;;;8.23;3.20;;;5.70;65.40;;;;;;4994026;28;20406;-70
2021/03/14 05:07:14;;;;;;;14.50;3.33;;;5.60;68.00;;;;;;4993855;28;20397;-71
2021/03/14 05:09:41;;;;;;;8.45;2.90;;;5.60;67.60;;;;;;4992323;28;20398;-71
2021/03/14 05:12:08;;;;;;;10.00;3.38;;;5.70;66.60;;;;;;4994141;28;20414;-71
2021/03/14 05:14:36;;;;;;;14.43;3.38;;;5.70;65.80;;;;;;4993796;28;20390;-71
2021/03/14 05:17:03;;;;;;;14.73;3.10;;;5.70;66.60;;;;;;4994176;28;20453;-70
2021/03/14 05:19:31;;;;;;;8.80;2.95;;;5.70;66.20;;;;;;4993740;28;20395;-71
2021/03/14 05:21:58;;;;;;;8.10;3.00;;;5.70;66.00;;;;;;4994068;28;20788;-70
2021/03/14 05:24:25;;;;;;;8.38;3.25;;;5.60;68.40;;;;;;4993957;28;20489;-71
2021/03/14 05:26:51;;;;;;;8.90;3.05;;;5.70;66.60;;;;;;4993581;28;20395;-70
2021/03/14 05:29:17;;;;;;;7.60;2.80;;;5.60;66.80;;;;;;4993259;28;20386;-70
2021/03/14 05:31:42;;;;;;;15.37;3.00;;;5.60;66.50;;;;;;4993658;28;20762;-70
2021/03/14 05:34:14;;;;;;;8.82;3.35;;;5.60;66.90;;;;;;4993490;28;20402;-71
2021/03/14 05:36:40;;;;;;;12.38;4.07;;;5.60;68.00;;;;;;4993481;28;20414;-71
2021/03/14 05:39:06;;;;;;;11.88;3.42;;;5.50;67.60;;;;;;4993414;28;20390;-70
2021/03/14 05:41:33;;;;;;;5.80;3.40;;;5.50;67.80;;;;;;4993552;28;20493;-72
2021/03/14 05:44:01;;;;;;;8.43;2.95;;;5.40;67.60;;;;;;4993146;28;20390;-71
2021/03/14 05:46:27;;;;;;;11.85;3.40;;;5.40;67.90;;;;;;4993303;28;20386;-71
2021/03/14 05:48:53;;;;;;;8.57;3.00;;;5.30;68.50;;;;;;4992908;28;20425;-70
2021/03/14 05:51:25;;;;;;;5.80;3.03;;;5.30;69.30;;;;;;4993183;28;20772;-71
2021/03/14 05:53:58;;;;;;;9.90;3.20;;;5.20;68.70;;;;;;4995323;28;20375;-70
2021/03/14 05:56:25;;;;;;;11.88;2.95;;;5.20;69.40;;;;;;4995624;28;20975;-71
2021/03/14 05:58:51;;;;;;;7.80;3.20;;;5.30;68.30;;;;;;4995415;28;20397;-70
2021/03/14 06:01:21;;;;;;;13.60;3.28;;;5.30;68.20;;;;;;4995138;28;20395;-70
2021/03/14 06:03:48;;;;;;;10.63;3.35;;;5.30;69.00;;;;;;4995022;28;20375;-69
2021/03/14 06:06:16;;;;;;;8.27;3.38;;;5.30;68.20;;;;;;4995579;28;20489;-73
2021/03/14 06:08:42;;;;;;;14.35;3.25;;;5.30;68.50;;;;;;4995338;28;20389;-70
2021/03/14 06:11:11;;;;;;;8.45;3.30;;;5.40;66.90;;;;;;4995395;28;20378;-71
2021/03/14 06:13:38;;;;;;;10.68;3.13;;;5.40;66.40;;;;;;4993738;28;20386;-70
2021/03/14 06:16:03;;;;;;;12.93;3.47;;;5.40;66.70;;;;;;4993144;28;20745;-70
2021/03/14 06:18:29;;;;;;;9.75;3.22;;;5.40;66.50;;;;;;4992791;28;20385;-70
2021/03/14 06:20:55;;;;;;;12.73;3.30;;;5.50;66.10;;;;;;4992172;28;20387;-70
2021/03/14 06:23:22;;;;;;;10.80;3.67;;;5.60;64.90;;;;;;4992706;28;20501;-70
2021/03/14 06:25:52;;;;;;;14.43;3.72;;;5.60;64.00;;;;;;4992541;28;20472;-71
2021/03/14 06:28:35;;;;;;;11.63;3.25;;;5.70;63.60;;;;;;4992573;28;20721;-70
2021/03/14 06:31:20;;;;;;;11.98;3.22;;;5.60;65.30;;;;;;4992414;28;20869;-70
2021/03/14 06:33:46;;;;;;;13.07;3.78;;;5.70;64.70;;;;;;4992248;28;20399;-71
2021/03/14 06:36:14;;;;;;;14.25;3.85;;;5.80;63.20;;;;;;4992162;28;20490;-71
2021/03/14 06:38:40;;;;;;;8.80;3.50;;;6.00;60.80;;;;;;4991975;28;20390;-70
2021/03/14 06:41:05;;;;;;;10.07;3.45;;;5.90;62.00;;;;;;4992319;28;20425;-70
2021/03/14 06:43:41;;;;;;;15.83;3.90;;;5.90;62.80;;;;;;4992183;28;20390;-70
2021/03/14 06:46:19;;;;;;;14.57;4.32;;;6.00;61.80;;;;;;4992271;28;20918;-70
2021/03/14 06:48:45;;;;;;;6.65;3.00;;;6.10;59.90;;;;;;4991973;28;20394;-71
2021/03/14 06:51:10;;;;;;;15.25;3.95;;;6.20;60.10;;;;;;4992184;28;20378;-70
2021/03/14 06:53:36;;;;;;;10.37;3.60;;;6.00;60.30;;;;;;4991878;28;20421;-69
2021/03/14 06:56:06;;;;;;;10.77;3.50;;;6.10;61.20;;;;;;4990524;28;20440;-70
2021/03/14 06:58:37;;;;;;;14.55;4.00;;;6.20;59.50;;;;;;4990663;28;20390;-70
2021/03/14 07:01:10;;;;;;;9.23;3.30;;;6.30;58.60;;;;;;4991091;28;21415;-70
2021/03/14 07:03:38;;;;;;;10.93;3.50;;;6.40;58.20;;;;;;4991812;28;20397;-70
2021/03/14 07:06:23;;;;;;;20.17;4.35;;;6.40;57.10;;;;;;4991643;28;20414;-70
2021/03/14 07:08:54;;;;;;;14.73;3.30;;;6.50;56.90;;;;;;4991486;28;20390;-70
2021/03/14 07:11:43;;;;;;;11.90;3.70;;;6.60;57.10;;;;;;4991413;28;20448;-70
2021/03/14 07:14:11;;;;;;;12.35;4.00;;;6.70;55.70;;;;;;4991673;28;20390;-71
2021/03/14 07:16:43;;;;;;;16.45;3.70;;;6.70;54.80;;;;;;4991692;28;20931;-70
2021/03/14 07:19:12;;;;;;;15.27;3.90;;;6.70;55.30;;;;;;4991009;28;20387;-70
2021/03/14 07:21:38;;;;;;;15.38;3.70;;;6.70;55.30;;;;;;4991712;28;20389;-70
2021/03/14 07:24:05;;;;;;;16.50;3.70;;;6.90;54.50;;;;;;4991418;28;20835;-70
2021/03/14 07:26:46;;;;;;;10.52;3.65;;;7.10;52.10;;;;;;4991491;28;20863;-70
2021/03/14 07:29:13;;;;;;;11.18;3.38;;;7.30;51.50;;;;;;4991276;28;20428;-71
2021/03/14 07:31:38;;;;;;;8.98;3.75;;;7.20;50.80;;;;;;4990780;28;20865;-71
2021/03/14 07:34:05;;;;;;;11.63;3.50;;;7.20;52.40;;;;;;4991440;28;20414;-70
2021/03/14 07:36:31;;;;;;;12.15;4.40;;;7.00;55.20;;;;;;4991429;28;20442;-71
2021/03/14 07:38:58;;;;;;;12.05;3.95;;;6.70;58.80;;;;;;4991316;28;20861;-70
2021/03/14 07:41:25;;;;;;;9.90;3.50;;;6.40;63.90;;;;;;4991504;28;20803;-71
2021/03/14 07:43:52;;;;;;;14.05;3.95;;;6.20;67.50;;;;;;4991314;28;20382;-71
2021/03/14 07:46:22;;;;;;;12.10;4.50;;;5.90;71.10;;;;;;4991204;28;20394;-70
2021/03/14 07:48:50;;;;;;;13.85;3.90;;;5.80;75.70;;;;;;4990779;28;20433;-71
2021/03/14 07:51:18;;;;;;;13.15;4.43;;;5.60;75.90;;;;;;4992701;28;20410;-70
2021/03/14 07:53:45;;;;;;;14.85;3.90;;;5.60;78.20;;;;;;4993842;28;20461;-71
2021/03/14 07:56:11;;;;;;;11.27;4.50;;;5.60;79.40;;;;;;4993656;28;21003;-70
2021/03/14 07:58:36;;;;;;;15.07;4.50;;;5.70;78.40;;;;;;4993365;28;20421;-70
2021/03/14 08:01:21;;;;;;;7.80;4.00;;;5.70;77.70;;;;;;4993147;28;20406;-71
2021/03/14 08:03:47;;;;;;;14.68;4.90;;;5.70;79.30;;;;;;4993253;28;20477;-71
2021/03/14 08:06:13;;;;;;;12.73;4.47;;;5.70;80.60;;;;;;4993545;28;20514;-71
2021/03/14 08:08:38;;;;;;;11.45;4.20;;;5.70;78.50;;;;;;4992944;28;20789;-70
2021/03/14 08:11:06;;;;;;;13.43;4.27;;;5.70;78.70;;;;;;4993360;28;20383;-70
2021/03/14 08:13:32;;;;;;;17.08;4.65;;;5.70;80.70;;;;;;4993063;28;20919;-71
2021/03/14 08:16:00;;;;;;;12.50;4.00;;;5.80;78.50;;;;;;4993410;28;20390;-71
2021/03/14 08:18:46;;;;;;;15.68;4.93;;;5.90;76.70;;;;;;4992721;28;20394;-71
2021/03/14 08:21:35;;;;;;;11.73;4.15;;;6.00;75.40;;;;;;4993160;28;20481;-70
2021/03/14 08:24:02;;;;;;;13.73;5.10;;;6.30;74.10;;;;;;4992986;28;20482;-72
2021/03/14 08:26:36;;;;;;;14.10;5.60;;;6.50;74.00;;;;;;4996555;28;20906;-71
2021/03/14 08:29:13;;;;;;;12.52;4.75;;;6.40;73.50;;;;;;5011971;28;20430;-71
2021/03/14 08:31:56;;;;;;;12.68;5.05;;;6.40;71.60;;;;;;5010389;28;20886;-70
2021/03/14 08:34:25;;;;;;;12.82;5.38;;;6.30;73.50;;;;;;5009986;28;21112;-71
2021/03/14 08:36:53;;;;;;;10.23;4.90;;;6.20;73.60;;;;;;5010049;28;20763;-72
2021/03/14 08:39:34;;;;;;;17.75;5.32;;;6.30;75.20;;;;;;5009865;28;20400;-70
2021/03/14 08:42:01;;;;;;;13.80;5.32;;;6.40;73.50;;;;;;5010123;28;20405;-71
2021/03/14 08:44:41;;;;;;;14.75;5.63;;;6.40;74.90;;;;;;5012587;28;20453;-71
2021/03/14 08:47:14;;;;;;;16.52;5.53;;;6.50;76.60;;;;;;5013705;28;20426;-71
2021/03/14 08:49:50;;;;;;;13.25;5.82;;;6.60;76.30;;;;;;5013312;28;20448;-72
2021/03/14 08:52:18;;;;;;;13.75;5.32;;;6.60;74.50;;;;;;5015278;28;20723;-71
2021/03/14 08:54:45;;;;;;;18.83;6.10;;;6.40;71.20;;;;;;5014278;28;20423;-71
2021/03/14 08:57:15;;;;;;;15.73;5.60;;;6.20;77.30;;;;;;5013567;28;20388;-71
2021/03/14 08:59:48;;;;;;;14.60;6.25;;;6.10;81.20;;;;;;5013489;28;20389;-71
2021/03/14 09:02:23;;;;;;;16.55;6.22;;;6.00;81.60;;;;;;5013419;28;20810;-71
2021/03/14 09:04:50;;;;;;;14.40;5.97;;;6.00;79.30;;;;;;5013729;28;20412;-72
2021/03/14 09:07:16;;;;;;;11.60;6.25;;;5.90;81.90;;;;;;5013674;28;20389;-71
2021/03/14 09:09:42;;;;;;;15.63;5.70;;;5.70;83.20;;;;;;5013944;28;20416;-71
2021/03/14 09:12:16;;;;;;;15.63;5.65;;;5.80;85.50;;;;;;5013399;28;20464;-71
2021/03/14 09:14:44;;;;;;;17.65;6.20;;;5.90;85.60;;;;;;5013173;28;20396;-72
2021/03/14 09:17:12;;;;;;;18.92;5.93;;;5.90;84.30;;;;;;5014938;28;20412;-70
2021/03/14 09:19:52;;;;;;;13.48;5.90;;;5.90;86.60;;;;;;5015632;28;20381;-70
2021/03/14 09:22:21;;;;;;;13.20;5.53;;;6.00;83.00;;;;;;5013954;28;20397;-71
2021/03/14 09:24:55;;;;;;;12.35;5.20;;;6.00;83.40;;;;;;5013454;28;20408;-71
2021/03/14 09:27:30;;;;;;;16.15;5.63;;;6.10;83.80;;;;;;5013014;28;20381;-71
2021/03/14 09:30:12;;;;;;;13.10;5.18;;;6.20;84.50;;;;;;4993241;28;20750;-71
2021/03/14 09:32:42;;;;;;;13.23;6.05;;;6.60;81.00;;;;;;4993300;28;20764;-70
2021/03/14 09:35:20;;;;;;;15.13;5.82;;;6.70;81.20;;;;;;5011065;28;20696;-71
2021/03/14 09:37:50;;;;;;;9.40;5.18;;;7.30;75.80;;;;;;4993338;28;20402;-71
2021/03/14 09:40:24;;;;;;;11.35;5.13;;;7.70;73.20;;;;;;4993091;28;20393;-71
2021/03/14 09:42:53;;;;;;;12.82;4.90;;;8.00;69.30;;;;;;4993127;28;20394;-70
2021/03/14 09:45:22;;;;;;;10.65;4.70;;;8.50;58.20;;;;;;4993501;28;20402;-72
2021/03/14 09:48:12;;;;;;;12.82;5.00;;;8.70;59.10;;;;;;4993554;28;20386;-71
2021/03/14 09:51:00;;;;;;;10.60;5.35;;;8.80;56.20;;;;;;4993312;28;20435;-72
2021/03/14 09:53:37;;;;;;;14.13;5.13;;;8.90;54.40;;;;;;4995267;28;20378;-71
2021/03/14 09:56:13;;;;;;;12.90;5.10;;;8.70;54.10;;;;;;4994817;28;20420;-70
2021/03/14 09:58:39;;;;;;;14.10;5.47;;;8.30;58.90;;;;;;4995451;28;20379;-70
2021/03/14 10:01:09;;;;;;;8.98;5.00;;;8.00;63.30;;;;;;4996071;28;20409;-70
2021/03/14 10:03:35;;;;;;;10.05;5.40;;;7.80;61.30;;;;;;4995275;28;20927;-71
2021/03/14 10:06:02;;;;;;;14.50;6.63;;;7.60;66.50;;;;;;4995559;28;20411;-71
2021/03/14 10:08:30;;;;;;;18.17;6.75;;;7.30;72.00;;;;;;4995151;28;20417;-71
2021/03/14 10:11:03;;;;;;;14.10;6.90;;;7.10;72.50;;;;;;4994772;28;20460;-71
2021/03/14 10:13:29;;;;;;;13.97;7.47;;;7.10;76.20;;;;;;4994646;28;20735;-71
2021/03/14 10:15:56;;;;;;;12.77;6.72;;;7.00;76.10;;;;;;4994820;28;20481;-71
2021/03/14 10:18:24;;;;;;;11.13;6.55;;;6.90;78.20;;;;;;4992974;28;20401;-72
2021/03/14 10:20:51;;;;;;;9.73;7.05;;;6.90;75.60;;;;;;4992526;28;20386;-71
2021/03/14 10:23:26;;;;;;;11.10;6.73;;;6.90;78.80;;;;;;4993901;28;20420;-71
2021/03/14 10:25:51;;;;;;;14.65;7.47;;;6.70;80.80;;;;;;4995026;28;20484;-70
2021/03/14 10:28:19;;;;;;;16.60;7.47;;;6.70;81.80;;;;;;4994264;28;20422;-72
2021/03/14 10:30:47;;;;;;;13.90;6.63;;;6.60;83.60;;;;;;4992168;28;20430;-71
2021/03/14 10:33:15;;;;;;;10.23;6.35;;;6.80;77.00;;;;;;4992324;28;20401;-71
2021/03/14 10:35:43;;;;;;;12.90;7.20;;;7.00;73.10;;;;;;4992223;28;20397;-71
2021/03/14 10:38:13;;;;;;;11.68;7.03;;;7.20;73.30;;;;;;4992199;28;20733;-71
2021/03/14 10:40:39;;;;;;;13.55;7.40;;;7.30;75.00;;;;;;4992029;28;20942;-70
2021/03/14 10:43:18;;;;;;;13.67;7.73;;;7.60;75.90;;;;;;4992076;28;20390;-71
2021/03/14 10:45:45;;;;;;;12.95;6.80;;;8.00;67.70;;;;;;4991989;28;20418;-71
2021/03/14 10:48:10;;;;;;;13.75;6.90;;;8.50;61.00;;;;;;4991949;28;20417;-71
2021/03/14 10:50:37;;;;;;;18.90;7.63;;;8.70;58.00;;;;;;4993407;28;20418;-71
2021/03/14 10:53:19;;;;;;;11.32;6.90;;;9.00;57.20;;;;;;4994326;28;20386;-70
2021/03/14 10:55:45;;;;;;;12.27;7.15;;;9.20;56.80;;;;;;4994603;28;20441;-71
2021/03/14 10:58:12;;;;;;;12.25;6.65;;;9.50;55.20;;;;;;4993703;28;20386;-70
2021/03/14 11:00:50;;;;;;;10.43;6.32;;;9.80;48.20;;;;;;4994125;28;20421;-71
2021/03/14 11:03:36;;;;;;;9.97;6.67;;;9.80;48.50;;;;;;4993904;28;20379;-70
2021/03/14 11:06:19;;;;;;;9.77;6.20;;;9.70;51.30;;;;;;4993848;28;20413;-71
2021/03/14 11:08:51;;;;;;;9.80;5.70;;;10.00;51.00;;;;;;4993781;28;20383;-71
2021/03/14 11:11:17;;;;;;;9.88;5.65;;;10.10;47.70;;;;;;4976351;28;20884;-72
2021/03/14 11:13:43;;;;;;;10.05;6.28;;;10.20;47.10;;;;;;4992108;28;20397;-70
2021/03/14 11:16:09;;;;;;;9.30;5.47;;;10.20;46.50;;;;;;4991339;28;20494;-71
2021/03/14 11:18:35;;;;;;;8.90;6.00;;;10.20;42.70;;;;;;4991291;28;20481;-71
2021/03/14 11:21:05;;;;;;;8.80;6.45;;;9.90;44.00;;;;;;4991395;28;20394;-71
2021/03/14 11:23:30;;;;;;;10.57;5.80;;;9.80;48.30;;;;;;4991198;28;20884;-71
2021/03/14 11:25:56;;;;;;;8.88;5.82;;;9.90;49.60;;;;;;4991447;28;20418;-71
2021/03/14 11:28:22;;;;;;;7.70;5.50;;;10.10;46.70;;;;;;4991231;28;20402;-71
2021/03/14 11:30:47;;;;;;;6.38;5.30;;;10.00;46.20;;;;;;4991374;28;20469;-71
2021/03/14 11:33:13;;;;;;;6.68;5.10;;;10.20;42.10;;;;;;4991149;28;20457;-72
2021/03/14 11:35:39;;;;;;;6.88;5.90;;;10.40;42.40;;;;;;4991507;28;20390;-71
2021/03/14 11:38:04;;;;;;;7.35;5.90;;;10.50;41.30;;;;;;4992365;28;20393;-70
2021/03/14 11:40:30;;;;;;;8.57;5.82;;;10.30;43.30;;;;;;4993637;28;20391;-72
2021/03/14 11:42:56;;;;;;;8.05;6.65;;;10.00;45.80;;;;;;4993732;28;20398;-71
2021/03/14 11:45:21;;;;;;;6.73;6.10;;;9.70;47.70;;;;;;4993294;28;20896;-71
2021/03/14 11:47:47;;;;;;;9.50;6.23;;;9.60;45.80;;;;;;4993208;28;20465;-71
2021/03/14 11:50:13;;;;;;;8.10;6.40;;;9.40;47.20;;;;;;4992747;28;20448;-71
2021/03/14 11:52:39;;;;;;;8.38;6.40;;;9.20;50.40;;;;;;4992667;28;20383;-72
2021/03/14 11:55:06;;;;;;;9.40;6.80;;;9.10;51.10;;;;;;4993646;28;20745;-70
2021/03/14 11:57:32;;;;;;;9.35;6.65;;;8.90;53.80;;;;;;4993371;28;20421;-72
2021/03/14 11:59:57;;;;;;;9.30;6.00;;;9.20;53.70;;;;;;4992234;28;20752;-71
2021/03/14 12:02:24;;;;;;;10.40;5.77;;;9.40;50.00;;;;;;4990725;28;20397;-72
2021/03/14 12:04:49;;;;;;;8.77;6.33;;;9.30;49.20;;;;;;4990842;28;20452;-72
2021/03/14 12:07:15;;;;;;;6.45;5.75;;;9.10;50.30;;;;;;4991927;28;20474;-71
2021/03/14 12:09:41;;;;;;;7.40;5.90;;;9.10;52.10;;;;;;4992229;28;20701;-71
2021/03/14 12:12:07;;;;;;;7.00;6.30;;;9.30;51.90;;;;;;4992571;28;20790;-71
2021/03/14 12:14:32;;;;;;;7.53;5.90;;;9.40;51.30;;;;;;4992170;28;20390;-72
2021/03/14 12:16:58;;;;;;;6.97;6.25;;;9.40;49.00;;;;;;4991099;28;20394;-70
2021/03/14 12:19:24;;;;;;;8.80;6.20;;;9.30;45.90;;;;;;4993659;28;20876;-71
2021/03/14 12:21:50;;;;;;;8.20;6.80;;;9.20;49.40;;;;;;4994884;28;20448;-71
2021/03/14 12:24:15;;;;;;;6.27;5.67;;;9.20;50.70;;;;;;4994433;28;20938;-71
2021/03/14 12:26:41;;;;;;;7.00;6.30;;;9.40;50.40;;;;;;4994370;28;20378;-71
2021/03/14 12:29:07;;;;;;;7.23;6.07;;;9.60;46.30;;;;;;4994311;28;20882;-71
2021/03/14 12:31:33;;;;;;;6.32;5.72;;;9.70;46.30;;;;;;4994430;28;20382;-71
2021/03/14 12:33:59;;;;;;;6.30;5.70;;;9.80;44.50;;;;;;4994216;28;20390;-72
2021/03/14 12:36:24;;;;;;;5.72;5.28;;;9.90;43.20;;;;;;4994048;28;20876;-71
2021/03/14 12:38:50;;;;;;;6.03;5.43;;;9.90;42.60;;;;;;4994447;28;21082;-72
2021/03/14 12:41:16;;;;;;;5.93;5.43;;;9.90;44.10;;;;;;4994295;28;20946;-71
2021/03/14 12:43:41;;;;;;;6.82;5.47;;;10.00;40.90;;;;;;4994757;28;20467;-72
2021/03/14 12:46:07;;;;;;;9.68;5.75;;;10.10;40.60;;;;;;4994120;28;20417;-71
2021/03/14 12:48:33;;;;;;;6.30;5.32;;;10.20;39.10;;;;;;4994383;28;20755;-71
2021/03/14 12:50:58;;;;;;;9.37;6.50;;;10.10;39.00;;;;;;4994256;28;20389;-71
2021/03/14 12:53:24;;;;;;;6.40;5.80;;;9.90;41.50;;;;;;4976373;28;20405;-71
2021/03/14 12:55:50;;;;;;;7.93;6.10;;;9.80;43.00;;;;;;4994629;28;20401;-70
2021/03/14 12:58:16;;;;;;;6.20;5.60;;;9.70;40.40;;;;;;4994923;28;20753;-71